createdAt,value
2023-05-18T00:00:00.680Z,13.50
2023-05-18T00:02:31.644Z,13.52
2023-05-18T00:05:04.919Z,13.50
2023-05-18T00:07:37.694Z,13.52
2023-05-18T00:10:09.971Z,13.54
2023-05-18T00:12:41.952Z,13.51
2023-05-18T00:15:17.849Z,13.52
2023-05-18T00:17:46.546Z,13.52
2023-05-18T00:20:18.836Z,13.52
2023-05-18T00:22:51.010Z,13.53
2023-05-18T00:25:19.671Z,13.47
2023-05-18T00:27:52.209Z,13.40
2023-05-18T00:30:22.100Z,13.35
2023-05-18T00:32:51.093Z,13.31
2023-05-18T00:35:19.711Z,13.28
2023-05-18T00:37:48.291Z,13.26
2023-05-18T00:40:17.284Z,13.22
2023-05-18T00:42:45.747Z,13.12
2023-05-18T00:45:14.277Z,13.05
2023-05-18T00:47:42.858Z,13.02
2023-05-18T00:50:12.743Z,13.03
2023-05-18T00:52:43.307Z,13.04
2023-05-18T00:55:14.602Z,13.02
2023-05-18T00:57:45.812Z,13.04
2023-05-18T01:00:15.745Z,13.03
2023-05-18T01:02:45.940Z,12.98
2023-05-18T01:05:17.724Z,12.95
2023-05-18T01:07:46.916Z,12.93
2023-05-18T01:10:19.284Z,12.91
2023-05-18T01:12:59.898Z,12.88
2023-05-18T01:15:37.463Z,12.86
2023-05-18T01:18:32.013Z,12.84
2023-05-18T01:21:43.416Z,12.84
2023-05-18T01:24:31.459Z,12.87
2023-05-18T01:27:01.267Z,12.89
2023-05-18T01:29:31.338Z,12.90
2023-05-18T01:31:59.878Z,12.86
2023-05-18T01:34:30.754Z,12.83
2023-05-18T01:37:01.021Z,12.86
2023-05-18T01:39:30.330Z,12.85
2023-05-18T01:42:08.712Z,12.78
2023-05-18T01:44:44.325Z,12.74
2023-05-18T01:47:15.894Z,12.70
2023-05-18T01:50:05.474Z,12.64
2023-05-18T01:52:40.151Z,12.61
2023-05-18T01:55:10.956Z,12.57
2023-05-18T01:57:43.332Z,12.56
2023-05-18T02:00:13.189Z,12.56
2023-05-18T02:02:45.385Z,12.53
2023-05-18T02:05:17.931Z,12.51
2023-05-18T02:07:54.257Z,12.50
2023-05-18T02:10:22.902Z,12.49
2023-05-18T02:12:53.110Z,12.49
2023-05-18T02:15:22.428Z,12.47
2023-05-18T02:17:51.317Z,12.44
2023-05-18T02:20:19.932Z,12.43
2023-05-18T02:22:48.381Z,12.41
2023-05-18T02:25:17.377Z,12.40
2023-05-18T02:27:45.954Z,12.41
2023-05-18T02:30:16.361Z,12.47
2023-05-18T02:32:47.289Z,12.49
2023-05-18T02:35:18.514Z,12.49
2023-05-18T02:37:47.769Z,12.52
2023-05-18T02:40:17.215Z,12.57
2023-05-18T02:42:48.065Z,12.62
2023-05-18T02:45:17.260Z,12.64
2023-05-18T02:47:46.225Z,12.62
2023-05-18T02:50:17.752Z,12.60
2023-05-18T02:52:49.408Z,12.60
2023-05-18T02:55:19.237Z,12.62
2023-05-18T02:57:57.298Z,12.62
2023-05-18T03:00:37.024Z,12.56
2023-05-18T03:03:16.369Z,12.53
2023-05-18T03:05:46.744Z,12.54
2023-05-18T03:08:15.305Z,12.53
2023-05-18T03:10:43.837Z,12.51
2023-05-18T03:13:12.466Z,12.49
2023-05-18T03:15:41.221Z,12.48
2023-05-18T03:18:10.090Z,12.47
2023-05-18T03:20:38.911Z,12.47
2023-05-18T03:23:08.021Z,12.48
2023-05-18T03:25:37.610Z,12.49
2023-05-18T03:28:07.246Z,12.50
2023-05-18T03:30:38.680Z,12.51
2023-05-18T03:33:07.401Z,12.50
2023-05-18T03:35:36.065Z,12.50
2023-05-18T03:38:05.015Z,12.51
2023-05-18T03:40:37.064Z,12.54
2023-05-18T03:43:06.068Z,12.57
2023-05-18T03:45:35.005Z,12.60
2023-05-18T03:48:03.720Z,12.59
2023-05-18T03:50:37.419Z,12.60
2023-05-18T03:53:06.694Z,12.63
2023-05-18T03:55:35.321Z,12.64
2023-05-18T03:58:03.973Z,12.67
2023-05-18T04:00:33.243Z,12.69
2023-05-18T04:03:03.728Z,12.67
2023-05-18T04:05:33.566Z,12.64
2023-05-18T04:08:02.275Z,12.60
2023-05-18T04:10:32.748Z,12.59
2023-05-18T04:13:02.308Z,12.59
2023-05-18T04:15:38.627Z,12.60
2023-05-18T04:18:08.654Z,12.61
2023-05-18T04:20:40.510Z,12.61
2023-05-18T04:23:10.450Z,12.61
2023-05-18T04:25:41.947Z,12.62
2023-05-18T04:28:12.612Z,12.64
2023-05-18T04:30:42.515Z,12.67
2023-05-18T04:33:13.085Z,12.70
2023-05-18T04:35:41.835Z,12.71
2023-05-18T04:38:11.006Z,12.69
2023-05-18T04:40:43.007Z,12.66
2023-05-18T04:43:17.740Z,12.64
2023-05-18T04:45:50.933Z,12.61
2023-05-18T04:48:21.078Z,12.59
2023-05-18T04:50:54.603Z,12.55
2023-05-18T04:53:23.220Z,12.51
2023-05-18T04:55:56.911Z,12.48
2023-05-18T04:58:25.798Z,12.47
2023-05-18T05:00:54.788Z,12.45
2023-05-18T05:03:23.460Z,12.47
2023-05-18T05:05:52.849Z,12.50
2023-05-18T05:08:24.249Z,12.50
2023-05-18T05:10:52.787Z,12.48
2023-05-18T05:13:24.435Z,12.46
2023-05-18T05:15:53.096Z,12.45
2023-05-18T05:18:21.777Z,12.45
2023-05-18T05:20:53.086Z,12.47
2023-05-18T05:23:21.716Z,12.49
2023-05-18T05:25:50.609Z,12.49
2023-05-18T05:28:19.263Z,12.49
2023-05-18T05:30:51.785Z,12.48
2023-05-18T05:33:23.280Z,12.45
2023-05-18T05:36:22.477Z,12.43
2023-05-18T05:38:56.822Z,12.43
2023-05-18T05:41:26.469Z,12.42
2023-05-18T05:43:59.145Z,12.44
2023-05-18T05:46:29.408Z,12.44
2023-05-18T05:49:01.196Z,12.46
2023-05-18T05:51:30.896Z,12.48
2023-05-18T05:54:05.508Z,12.47
2023-05-18T05:56:37.329Z,12.45
2023-05-18T05:59:09.405Z,12.45
2023-05-18T06:01:39.174Z,12.45
2023-05-18T06:04:11.106Z,12.47
2023-05-18T06:06:42.296Z,12.48
2023-05-18T06:09:12.000Z,12.50
2023-05-18T06:11:42.059Z,12.47
2023-05-18T06:14:11.312Z,12.48
2023-05-18T06:16:40.781Z,12.53
2023-05-18T06:19:10.784Z,12.57
2023-05-18T06:21:41.720Z,12.62
2023-05-18T06:24:14.349Z,12.62
2023-05-18T06:27:10.127Z,12.63
2023-05-18T06:29:49.534Z,12.63
2023-05-18T06:32:38.332Z,12.69
2023-05-18T06:35:08.526Z,12.75
2023-05-18T06:37:39.835Z,12.79
2023-05-18T06:40:10.789Z,12.81
2023-05-18T06:42:39.426Z,12.81
2023-05-18T06:45:33.139Z,12.79
2023-05-18T06:48:15.854Z,12.79
2023-05-18T06:50:45.821Z,12.82
2023-05-18T06:53:15.231Z,12.85
2023-05-18T06:55:43.831Z,12.86
2023-05-18T06:58:13.717Z,12.86
2023-05-18T07:00:43.529Z,12.86
2023-05-18T07:03:13.912Z,12.89
2023-05-18T07:05:43.470Z,12.95
2023-05-18T07:08:12.206Z,12.97
2023-05-18T07:10:41.556Z,12.97
2023-05-18T07:13:10.667Z,12.97
2023-05-18T07:15:40.129Z,12.98
2023-05-18T07:18:09.366Z,13.00
2023-05-18T07:20:41.365Z,13.03
2023-05-18T07:23:09.961Z,13.08
2023-05-18T07:25:39.264Z,13.12
2023-05-18T07:28:08.071Z,13.13
2023-05-18T07:30:37.200Z,13.16
2023-05-18T07:33:08.021Z,13.19
2023-05-18T07:35:39.992Z,13.22
2023-05-18T07:38:08.788Z,13.23
2023-05-18T07:40:38.137Z,13.25
2023-05-18T07:43:06.860Z,13.27
2023-05-18T07:45:35.505Z,13.28
2023-05-18T07:48:04.337Z,13.28
2023-05-18T07:50:35.702Z,13.29
2023-05-18T07:53:05.793Z,13.33
2023-05-18T07:55:34.584Z,13.38
2023-05-18T07:58:03.342Z,13.40
2023-05-18T08:00:32.187Z,13.41
2023-05-18T08:03:01.502Z,13.45
2023-05-18T08:05:30.627Z,13.46
2023-05-18T08:07:59.649Z,13.46
2023-05-18T08:10:28.978Z,13.53
2023-05-18T08:12:58.429Z,13.56
2023-05-18T08:15:27.956Z,13.61
2023-05-18T08:17:57.382Z,13.64
2023-05-18T08:20:30.274Z,13.65
2023-05-18T08:22:58.890Z,13.66
2023-05-18T08:25:27.562Z,13.68
2023-05-18T08:27:56.857Z,13.70
2023-05-18T08:30:27.067Z,13.71
2023-05-18T08:32:56.700Z,13.74
2023-05-18T08:35:27.790Z,13.84
2023-05-18T08:37:56.669Z,13.90
2023-05-18T08:40:42.987Z,13.97
2023-05-18T08:43:30.158Z,14.10
2023-05-18T08:46:18.332Z,14.25
2023-05-18T08:48:48.134Z,14.46
2023-05-18T08:51:20.829Z,14.68
2023-05-18T08:53:54.256Z,14.93
2023-05-18T08:56:25.779Z,15.05
2023-05-18T08:58:58.154Z,15.14
2023-05-18T09:01:31.508Z,15.27
2023-05-18T09:04:02.412Z,15.40
2023-05-18T09:06:34.159Z,15.56
2023-05-18T09:09:06.801Z,15.70
2023-05-18T09:11:36.206Z,15.91
2023-05-18T09:14:05.227Z,16.11
2023-05-18T09:16:35.176Z,16.29
2023-05-18T09:19:04.056Z,16.43
2023-05-18T09:21:33.258Z,16.59
2023-05-18T09:24:02.383Z,16.72
2023-05-18T09:26:31.229Z,16.90
2023-05-18T09:29:00.214Z,17.04
2023-05-18T09:31:31.214Z,17.16
2023-05-18T09:34:01.758Z,17.28
2023-05-18T09:36:32.621Z,17.38
2023-05-18T09:39:07.272Z,17.53
2023-05-18T09:41:39.593Z,17.66
2023-05-18T09:44:12.840Z,17.82
2023-05-18T09:46:42.514Z,17.99
2023-05-18T09:49:11.059Z,18.07
2023-05-18T09:51:39.923Z,18.18
2023-05-18T09:54:10.602Z,18.29
2023-05-18T09:56:39.563Z,18.36
2023-05-18T09:59:13.508Z,18.34
2023-05-18T10:02:13.667Z,18.36
2023-05-18T10:04:43.816Z,18.50
2023-05-18T10:07:13.498Z,18.46
2023-05-18T10:09:43.844Z,18.46
2023-05-18T10:12:17.755Z,18.48
2023-05-18T10:14:46.771Z,18.53
2023-05-18T10:17:17.666Z,18.59
2023-05-18T10:19:49.304Z,18.73
2023-05-18T10:22:21.134Z,18.87
2023-05-18T10:24:51.970Z,19.00
2023-05-18T10:27:27.409Z,18.97
2023-05-18T10:29:59.468Z,18.91
2023-05-18T10:32:30.551Z,18.97
2023-05-18T10:35:00.601Z,19.12
2023-05-18T10:37:32.748Z,19.19
2023-05-18T10:40:04.137Z,19.20
2023-05-18T10:42:33.554Z,19.24
2023-05-18T10:45:03.365Z,19.36
2023-05-18T10:47:36.302Z,19.49
2023-05-18T10:50:06.140Z,19.46
2023-05-18T10:52:38.207Z,19.43
2023-05-18T10:55:10.372Z,19.47
2023-05-18T10:58:01.174Z,19.55
2023-05-18T11:00:34.832Z,19.56
2023-05-18T11:03:15.989Z,19.48
2023-05-18T11:05:50.169Z,19.46
2023-05-18T11:08:29.427Z,19.43
2023-05-18T11:11:08.117Z,19.40
2023-05-18T11:13:39.228Z,19.48
2023-05-18T11:16:09.237Z,19.58
2023-05-18T11:18:47.004Z,19.66
2023-05-18T11:21:24.882Z,19.74
2023-05-18T11:24:31.875Z,19.66
2023-05-18T11:27:09.471Z,19.45
2023-05-18T11:29:42.516Z,19.28
2023-05-18T11:32:30.574Z,19.13
2023-05-18T11:35:00.222Z,19.00
2023-05-18T11:37:45.172Z,18.93
2023-05-18T11:40:51.460Z,18.87
2023-05-18T11:43:25.111Z,18.84
2023-05-18T11:45:59.692Z,18.83
2023-05-18T11:48:32.480Z,18.84
2023-05-18T11:51:01.941Z,18.86
2023-05-18T11:53:31.670Z,18.94
2023-05-18T11:56:00.374Z,19.08
2023-05-18T11:58:30.821Z,19.18
2023-05-18T12:01:01.704Z,19.32
2023-05-18T12:03:31.976Z,19.51
2023-05-18T12:06:05.444Z,19.75
2023-05-18T12:08:34.216Z,19.97
2023-05-18T12:11:03.415Z,20.14
2023-05-18T12:13:32.261Z,20.26
2023-05-18T12:16:01.964Z,20.27
2023-05-18T12:18:35.394Z,20.37
2023-05-18T12:21:07.263Z,20.49
2023-05-18T12:23:39.749Z,20.60
2023-05-18T12:26:08.333Z,20.65
2023-05-18T12:28:37.008Z,20.65
2023-05-18T12:31:08.758Z,20.67
2023-05-18T12:33:37.531Z,20.64
2023-05-18T12:36:12.071Z,20.58
2023-05-18T12:38:41.515Z,20.51
2023-05-18T12:41:10.234Z,20.40
2023-05-18T12:43:38.992Z,20.30
2023-05-18T12:46:07.684Z,20.21
2023-05-18T12:48:38.052Z,20.10
2023-05-18T12:51:18.011Z,19.92
2023-05-18T12:53:50.276Z,19.76
2023-05-18T12:56:18.955Z,19.63
2023-05-18T12:59:04.560Z,19.51
2023-05-18T13:01:44.139Z,19.37
2023-05-18T13:04:13.365Z,19.30
2023-05-18T13:06:42.737Z,19.26
2023-05-18T13:09:15.839Z,19.24
2023-05-18T13:12:00.232Z,19.21
2023-05-18T13:14:38.990Z,19.23
2023-05-18T13:17:07.759Z,19.23
2023-05-18T13:19:39.535Z,19.24
2023-05-18T13:22:08.567Z,19.25
2023-05-18T13:24:37.439Z,19.26
2023-05-18T13:27:06.212Z,19.31
2023-05-18T13:29:35.053Z,19.37
2023-05-18T13:32:06.283Z,19.48
2023-05-18T13:34:34.998Z,19.63
2023-05-18T13:37:03.739Z,19.75
2023-05-18T13:39:32.323Z,19.82
2023-05-18T13:42:03.175Z,19.84
2023-05-18T13:44:34.136Z,19.86
2023-05-18T13:47:03.056Z,19.88
2023-05-18T13:49:32.004Z,19.87
2023-05-18T13:52:01.130Z,19.90
2023-05-18T13:54:30.865Z,19.92
2023-05-18T13:56:59.614Z,19.94
2023-05-18T13:59:28.236Z,19.94
2023-05-18T14:01:56.893Z,19.93
2023-05-18T14:04:25.544Z,19.95
2023-05-18T14:06:56.126Z,19.99
2023-05-18T14:09:28.418Z,19.97
2023-05-18T14:11:58.242Z,19.92
2023-05-18T14:14:26.966Z,19.85
2023-05-18T14:16:55.709Z,19.76
2023-05-18T14:19:24.761Z,19.71
2023-05-18T14:21:53.956Z,19.70
2023-05-18T14:24:23.502Z,19.68
2023-05-18T14:26:53.549Z,19.65
2023-05-18T14:29:22.294Z,19.59
2023-05-18T14:31:51.352Z,19.51
2023-05-18T14:34:19.913Z,19.42
2023-05-18T14:36:48.490Z,19.33
2023-05-18T14:39:17.156Z,19.29
2023-05-18T14:41:46.104Z,19.26
2023-05-18T14:44:14.794Z,19.23
2023-05-18T14:46:44.107Z,19.22
2023-05-18T14:49:12.776Z,19.24
2023-05-18T14:51:41.535Z,19.28
2023-05-18T14:54:11.181Z,19.33
2023-05-18T14:56:40.211Z,19.38
2023-05-18T14:59:08.814Z,19.40
2023-05-18T15:01:37.681Z,19.36
2023-05-18T15:04:06.605Z,19.30
2023-05-18T15:06:37.684Z,19.21
2023-05-18T15:09:06.706Z,19.18
2023-05-18T15:11:35.427Z,19.16
2023-05-18T15:14:04.359Z,19.18
2023-05-18T15:16:32.973Z,19.21
2023-05-18T15:19:01.712Z,19.19
2023-05-18T15:21:30.353Z,19.25
2023-05-18T15:23:59.047Z,19.29
2023-05-18T15:26:27.843Z,19.22
2023-05-18T15:28:56.725Z,19.15
2023-05-18T15:31:25.782Z,19.09
2023-05-18T15:33:54.479Z,19.01
2023-05-18T15:36:24.513Z,18.92
2023-05-18T15:38:53.917Z,18.85
2023-05-18T15:41:22.464Z,18.80
2023-05-18T15:43:51.369Z,18.69
2023-05-18T15:46:20.180Z,18.60
2023-05-18T15:48:48.773Z,18.50
2023-05-18T15:51:17.495Z,18.47
2023-05-18T15:53:46.121Z,18.40
2023-05-18T15:56:15.426Z,18.34
2023-05-18T15:58:44.021Z,18.25
2023-05-18T16:01:12.751Z,18.18
2023-05-18T16:03:41.668Z,18.10
2023-05-18T16:06:10.561Z,18.02
2023-05-18T16:08:39.114Z,17.98
2023-05-18T16:11:07.594Z,17.96
2023-05-18T16:13:36.255Z,17.95
2023-05-18T16:16:05.033Z,17.88
2023-05-18T16:18:33.657Z,17.82
2023-05-18T16:21:02.449Z,17.76
2023-05-18T16:23:31.060Z,17.68
2023-05-18T16:26:00.510Z,17.59
2023-05-18T16:28:29.517Z,17.52
2023-05-18T16:31:03.764Z,17.47
2023-05-18T16:33:32.368Z,17.41
2023-05-18T16:36:01.959Z,17.36
2023-05-18T16:38:31.718Z,17.33
2023-05-18T16:41:00.264Z,17.30
2023-05-18T16:43:29.264Z,17.23
2023-05-18T16:45:58.760Z,17.18
2023-05-18T16:48:27.887Z,17.15
2023-05-18T16:50:56.471Z,17.15
2023-05-18T16:53:25.029Z,17.10
2023-05-18T16:55:53.773Z,17.06
2023-05-18T16:58:22.405Z,17.01
2023-05-18T17:00:50.960Z,16.98
2023-05-18T17:03:20.110Z,16.95
2023-05-18T17:05:49.151Z,16.92
2023-05-18T17:08:17.816Z,16.88
2023-05-18T17:10:46.559Z,16.84
2023-05-18T17:13:15.100Z,16.79
2023-05-18T17:15:44.250Z,16.75
2023-05-18T17:18:23.800Z,16.72
2023-05-18T17:21:09.814Z,16.67
2023-05-18T17:23:39.097Z,16.61
2023-05-18T17:26:07.867Z,16.54
2023-05-18T17:28:36.942Z,16.49
2023-05-18T17:31:14.826Z,16.45
2023-05-18T17:34:03.194Z,16.41
2023-05-18T17:36:32.579Z,16.39
2023-05-18T17:39:01.607Z,16.35
2023-05-18T17:41:30.742Z,16.30
2023-05-18T17:43:59.502Z,16.29
2023-05-18T17:46:28.889Z,16.26
2023-05-18T17:48:57.853Z,16.21
2023-05-18T17:51:27.109Z,16.19
2023-05-18T17:53:56.869Z,16.19
2023-05-18T17:56:27.816Z,16.16
2023-05-18T17:58:59.009Z,16.11
2023-05-18T18:01:29.136Z,16.05
2023-05-18T18:03:58.694Z,16.01
2023-05-18T18:06:28.530Z,15.97
2023-05-18T18:08:59.093Z,15.96
2023-05-18T18:11:29.317Z,15.96
2023-05-18T18:13:58.369Z,15.92
2023-05-18T18:16:27.524Z,15.86
2023-05-18T18:18:59.798Z,15.80
2023-05-18T18:21:37.650Z,15.77
2023-05-18T18:24:06.546Z,15.78
2023-05-18T18:26:40.798Z,15.80
2023-05-18T18:29:16.871Z,15.79
2023-05-18T18:31:45.815Z,15.78
2023-05-18T18:34:16.338Z,15.75
2023-05-18T18:36:48.122Z,15.73
2023-05-18T18:39:21.565Z,15.70
2023-05-18T18:41:53.482Z,15.69
2023-05-18T18:44:31.662Z,15.67
2023-05-18T18:47:00.793Z,15.62
2023-05-18T18:49:29.759Z,15.59
2023-05-18T18:51:59.245Z,15.58
2023-05-18T18:54:28.046Z,15.55
2023-05-18T18:56:56.924Z,15.54
2023-05-18T18:59:25.615Z,15.49
2023-05-18T19:01:54.330Z,15.44
2023-05-18T19:04:23.350Z,15.39
2023-05-18T19:06:56.143Z,15.36
2023-05-18T19:09:24.970Z,15.36
2023-05-18T19:11:53.746Z,15.35
2023-05-18T19:14:22.553Z,15.33
2023-05-18T19:16:51.163Z,15.28
2023-05-18T19:19:20.480Z,15.24
2023-05-18T19:21:49.376Z,15.19
2023-05-18T19:24:18.098Z,15.16
2023-05-18T19:26:46.804Z,15.14
2023-05-18T19:29:15.569Z,15.09
2023-05-18T19:31:44.330Z,15.04
2023-05-18T19:34:14.402Z,15.01
2023-05-18T19:36:46.136Z,14.96
2023-05-18T19:39:18.515Z,14.95
2023-05-18T19:41:47.349Z,14.93
2023-05-18T19:44:15.974Z,14.92
2023-05-18T19:46:44.558Z,14.90
2023-05-18T19:49:13.249Z,14.88
2023-05-18T19:51:41.929Z,14.84
2023-05-18T19:54:10.752Z,14.79
2023-05-18T19:56:39.320Z,14.76
2023-05-18T19:59:08.197Z,14.71
2023-05-18T20:01:36.905Z,14.67
2023-05-18T20:04:05.933Z,14.64
2023-05-18T20:06:34.559Z,14.59
2023-05-18T20:09:03.239Z,14.57
2023-05-18T20:11:32.024Z,14.55
2023-05-18T20:14:01.746Z,14.54
2023-05-18T20:16:34.190Z,14.51
2023-05-18T20:19:05.228Z,14.46
2023-05-18T20:21:34.810Z,14.43
2023-05-18T20:24:03.459Z,14.44
2023-05-18T20:26:32.350Z,14.45
2023-05-18T20:29:01.124Z,14.45
2023-05-18T20:31:29.863Z,14.42
2023-05-18T20:33:58.533Z,14.38
2023-05-18T20:36:27.293Z,14.33
2023-05-18T20:38:58.318Z,14.30
2023-05-18T20:41:28.552Z,14.31
2023-05-18T20:43:57.737Z,14.31
2023-05-18T20:46:28.019Z,14.32
2023-05-18T20:48:57.076Z,14.31
2023-05-18T20:51:26.170Z,14.27
2023-05-18T20:53:54.897Z,14.22
2023-05-18T20:56:24.140Z,14.19
2023-05-18T20:58:54.256Z,14.19
2023-05-18T21:01:24.421Z,14.21
2023-05-18T21:03:53.126Z,14.21
2023-05-18T21:06:21.951Z,14.21
2023-05-18T21:08:50.963Z,14.20
2023-05-18T21:11:19.837Z,14.21
2023-05-18T21:13:48.557Z,14.22
2023-05-18T21:16:17.317Z,14.22
2023-05-18T21:18:46.461Z,14.23
2023-05-18T21:21:15.627Z,14.19
2023-05-18T21:23:45.024Z,14.13
2023-05-18T21:26:14.067Z,14.13
2023-05-18T21:28:43.032Z,14.12
2023-05-18T21:31:12.236Z,14.10
2023-05-18T21:33:42.458Z,14.07
2023-05-18T21:36:11.936Z,14.01
2023-05-18T21:38:40.937Z,13.97
2023-05-18T21:41:27.324Z,13.92
2023-05-18T21:43:59.510Z,13.90
2023-05-18T21:46:29.300Z,13.87
2023-05-18T21:48:58.917Z,13.81
2023-05-18T21:51:29.146Z,13.75
2023-05-18T21:53:59.177Z,13.72
2023-05-18T21:56:30.049Z,13.70
2023-05-18T21:58:59.382Z,13.67
2023-05-18T22:01:28.055Z,13.68
2023-05-18T22:03:56.874Z,13.66
2023-05-18T22:06:29.567Z,13.68
2023-05-18T22:08:58.125Z,13.66
2023-05-18T22:11:26.736Z,13.65
2023-05-18T22:13:55.601Z,13.61
2023-05-18T22:16:24.422Z,13.61
2023-05-18T22:18:53.527Z,13.61
2023-05-18T22:21:22.478Z,13.68
2023-05-18T22:23:54.640Z,13.68
2023-05-18T22:26:23.444Z,13.65
2023-05-18T22:28:52.121Z,13.64
2023-05-18T22:31:21.000Z,13.64
2023-05-18T22:33:54.205Z,13.65
2023-05-18T22:36:28.609Z,13.66
2023-05-18T22:38:57.873Z,13.63
2023-05-18T22:41:27.289Z,13.57
2023-05-18T22:43:56.105Z,13.56
2023-05-18T22:46:24.751Z,13.54
2023-05-18T22:48:53.982Z,13.55
2023-05-18T22:51:23.673Z,13.54
2023-05-18T22:53:52.346Z,13.56
2023-05-18T22:56:22.546Z,13.56
2023-05-18T22:58:54.153Z,13.55
2023-05-18T23:01:22.588Z,13.54
2023-05-18T23:03:51.649Z,13.54
2023-05-18T23:06:22.328Z,13.53
2023-05-18T23:08:50.884Z,13.52
2023-05-18T23:11:20.083Z,13.51
2023-05-18T23:13:49.210Z,13.48
2023-05-18T23:16:18.680Z,13.47
2023-05-18T23:18:49.038Z,13.45
2023-05-18T23:21:17.546Z,13.41
2023-05-18T23:24:53.597Z,13.32
2023-05-18T23:27:39.973Z,13.22
2023-05-18T23:30:09.013Z,13.16
2023-05-18T23:32:38.157Z,13.16
2023-05-18T23:35:07.378Z,13.15
2023-05-18T23:37:41.469Z,13.14
2023-05-18T23:40:13.841Z,13.12
2023-05-18T23:42:42.811Z,13.08
2023-05-18T23:45:12.473Z,13.03
2023-05-18T23:47:41.490Z,13.00
2023-05-18T23:50:10.614Z,12.97
2023-05-18T23:52:41.628Z,12.95
2023-05-18T23:55:11.585Z,12.95
2023-05-18T23:57:40.365Z,12.89
